sensor_id;sensor_type;location;lat;lon;timestamp;pressure;altitude;pressure_sealevel;temperature;humidity
3254;BME280;1639;42.804;23.342;2023-07-16T00:00:06;71743.97;;;-148.52;75.60
3254;BME280;1639;42.804;23.342;2023-07-16T00:02:33;71756.38;;;-148.52;76.12
3254;BME280;1639;42.804;23.342;2023-07-16T00:04:59;71758.44;;;-148.52;75.81
3254;BME280;1639;42.804;23.342;2023-07-16T00:07:24;71743.97;;;-148.52;75.30
3254;BME280;1639;42.804;23.342;2023-07-16T00:09:49;71746.03;;;-148.52;75.08
3254;BME280;1639;42.804;23.342;2023-07-16T00:12:15;71750.16;;;-148.52;75.40
3254;BME280;1639;42.804;23.342;2023-07-16T00:14:40;71733.63;;;-148.52;75.15
3254;BME280;1639;42.804;23.342;2023-07-16T00:17:06;71721.22;;;-148.52;74.82
3254;BME280;1639;42.804;23.342;2023-07-16T00:19:31;71739.81;;;-148.52;74.93
3254;BME280;1639;42.804;23.342;2023-07-16T00:21:56;71735.69;;;-148.52;74.86
3254;BME280;1639;42.804;23.342;2023-07-16T00:24:22;71719.16;;;-148.52;74.46
3254;BME280;1639;42.804;23.342;2023-07-16T00:26:47;71739.81;;;-148.52;74.98
3254;BME280;1639;42.804;23.342;2023-07-16T00:29:13;71735.69;;;-148.52;74.78
3254;BME280;1639;42.804;23.342;2023-07-16T00:31:38;71735.69;;;-148.52;74.69
3254;BME280;1639;42.804;23.342;2023-07-16T00:34:03;71725.34;;;-148.52;74.44
3254;BME280;1639;42.804;23.342;2023-07-16T00:36:29;71727.41;;;-148.52;73.84
3254;BME280;1639;42.804;23.342;2023-07-16T00:38:54;71721.22;;;-148.52;73.84
3254;BME280;1639;42.804;23.342;2023-07-16T00:41:20;71731.56;;;-148.52;73.74
3254;BME280;1639;42.804;23.342;2023-07-16T00:43:45;71733.63;;;-148.52;74.24
3254;BME280;1639;42.804;23.342;2023-07-16T00:46:11;71731.56;;;-148.52;73.81
3254;BME280;1639;42.804;23.342;2023-07-16T00:48:37;71731.56;;;-148.52;73.70
3254;BME280;1639;42.804;23.342;2023-07-16T00:51:02;71735.69;;;-148.52;74.08
3254;BME280;1639;42.804;23.342;2023-07-16T00:53:30;71743.97;;;-148.52;73.87
3254;BME280;1639;42.804;23.342;2023-07-16T00:55:55;71733.63;;;-148.52;73.70
3254;BME280;1639;42.804;23.342;2023-07-16T00:58:20;71733.63;;;-148.52;73.89
3254;BME280;1639;42.804;23.342;2023-07-16T01:00:46;71752.22;;;-148.52;74.26
3254;BME280;1639;42.804;23.342;2023-07-16T01:03:13;71735.69;;;-148.52;73.60
3254;BME280;1639;42.804;23.342;2023-07-16T01:05:47;71748.09;;;-148.52;73.91
3254;BME280;1639;42.804;23.342;2023-07-16T01:08:14;71743.97;;;-148.52;73.58
3254;BME280;1639;42.804;23.342;2023-07-16T01:10:44;71748.09;;;-148.52;73.88
3254;BME280;1639;42.804;23.342;2023-07-16T01:13:09;71735.69;;;-148.52;73.24
3254;BME280;1639;42.804;23.342;2023-07-16T01:15:35;71748.09;;;-148.52;73.39
3254;BME280;1639;42.804;23.342;2023-07-16T01:18:00;71752.22;;;-148.52;73.90
3254;BME280;1639;42.804;23.342;2023-07-16T01:20:26;71754.28;;;-148.52;73.70
3254;BME280;1639;42.804;23.342;2023-07-16T01:25:56;71772.91;;;-148.52;75.00
3254;BME280;1639;42.804;23.342;2023-07-16T01:29:12;71806.00;;;-148.52;76.32
3254;BME280;1639;42.804;23.342;2023-07-16T01:31:40;71797.72;;;-148.52;75.71
3254;BME280;1639;42.804;23.342;2023-07-16T01:34:06;71803.91;;;-148.52;76.26
3254;BME280;1639;42.804;23.342;2023-07-16T01:36:33;71822.53;;;-148.52;76.56
3254;BME280;1639;42.804;23.342;2023-07-16T01:38:59;71822.53;;;-148.52;77.07
3254;BME280;1639;42.804;23.342;2023-07-16T01:41:25;71828.72;;;-148.52;77.38
3254;BME280;1639;42.804;23.342;2023-07-16T01:43:50;71812.19;;;-148.52;76.60
3254;BME280;1639;42.804;23.342;2023-07-16T01:46:17;71822.53;;;-148.52;76.43
3254;BME280;1639;42.804;23.342;2023-07-16T01:48:42;71828.72;;;-148.52;76.84
3254;BME280;1639;42.804;23.342;2023-07-16T01:51:08;71814.25;;;-148.52;76.44
3254;BME280;1639;42.804;23.342;2023-07-16T01:53:33;71828.72;;;-148.52;76.74
3254;BME280;1639;42.804;23.342;2023-07-16T01:56:01;71826.66;;;-148.52;76.75
3254;BME280;1639;42.804;23.342;2023-07-16T01:58:27;71832.88;;;-148.52;76.99
3254;BME280;1639;42.804;23.342;2023-07-16T02:00:53;71826.66;;;-148.52;76.91
3254;BME280;1639;42.804;23.342;2023-07-16T02:03:18;71826.66;;;-148.52;76.74
3254;BME280;1639;42.804;23.342;2023-07-16T02:05:43;71824.59;;;-148.52;76.28
3254;BME280;1639;42.804;23.342;2023-07-16T02:08:09;71828.72;;;-148.52;76.76
3254;BME280;1639;42.804;23.342;2023-07-16T02:10:34;71814.25;;;-148.52;76.02
3254;BME280;1639;42.804;23.342;2023-07-16T02:12:59;71824.59;;;-148.52;76.37
3254;BME280;1639;42.804;23.342;2023-07-16T02:15:25;71830.81;;;-148.52;76.56
3254;BME280;1639;42.804;23.342;2023-07-16T02:17:50;71824.59;;;-148.52;76.36
3254;BME280;1639;42.804;23.342;2023-07-16T02:20:16;71843.19;;;-148.52;76.66
3254;BME280;1639;42.804;23.342;2023-07-16T02:22:41;71855.59;;;-148.52;77.64
3254;BME280;1639;42.804;23.342;2023-07-16T02:25:07;71843.19;;;-148.52;77.01
3254;BME280;1639;42.804;23.342;2023-07-16T02:27:32;71841.13;;;-148.52;77.38
3254;BME280;1639;42.804;23.342;2023-07-16T02:29:58;71828.72;;;-148.52;76.31
3254;BME280;1639;42.804;23.342;2023-07-16T02:32:23;71822.53;;;-148.52;76.19
3254;BME280;1639;42.804;23.342;2023-07-16T02:34:49;71845.28;;;-148.52;76.14
3254;BME280;1639;42.804;23.342;2023-07-16T02:37:14;71857.69;;;-148.52;76.56
3254;BME280;1639;42.804;23.342;2023-07-16T02:39:41;71847.34;;;-148.52;76.41
3254;BME280;1639;42.804;23.342;2023-07-16T02:42:07;71853.53;;;-148.52;76.52
3254;BME280;1639;42.804;23.342;2023-07-16T02:44:32;71861.81;;;-148.52;77.07
3254;BME280;1639;42.804;23.342;2023-07-16T02:46:58;71882.50;;;-148.52;77.27
3254;BME280;1639;42.804;23.342;2023-07-16T02:49:23;71882.50;;;-148.52;77.76
3254;BME280;1639;42.804;23.342;2023-07-16T02:51:49;71892.81;;;-148.52;78.06
3254;BME280;1639;42.804;23.342;2023-07-16T02:54:14;71905.22;;;-148.52;78.42
3254;BME280;1639;42.804;23.342;2023-07-16T02:56:39;71913.50;;;-148.52;78.93
3254;BME280;1639;42.804;23.342;2023-07-16T02:59:05;71923.84;;;-148.52;79.31
3254;BME280;1639;42.804;23.342;2023-07-16T03:01:31;71923.84;;;-148.52;79.08
3254;BME280;1639;42.804;23.342;2023-07-16T03:03:56;71942.44;;;-148.52;79.97
3254;BME280;1639;42.804;23.342;2023-07-16T03:06:21;71934.19;;;-148.52;80.25
3254;BME280;1639;42.804;23.342;2023-07-16T03:08:47;71950.72;;;-148.52;80.83
3254;BME280;1639;42.804;23.342;2023-07-16T03:11:13;71946.59;;;-148.52;80.64
3254;BME280;1639;42.804;23.342;2023-07-16T03:13:38;71921.78;;;-148.52;79.67
3254;BME280;1639;42.804;23.342;2023-07-16T03:16:04;71925.91;;;-148.52;80.25
3254;BME280;1639;42.804;23.342;2023-07-16T03:18:30;71927.97;;;-148.52;79.76
3254;BME280;1639;42.804;23.342;2023-07-16T03:20:56;71934.19;;;-148.52;79.15
3254;BME280;1639;42.804;23.342;2023-07-16T03:23:22;71942.44;;;-148.52;79.99
3254;BME280;1639;42.804;23.342;2023-07-16T03:25:48;71930.03;;;-148.52;79.44
3254;BME280;1639;42.804;23.342;2023-07-16T03:28:13;71932.13;;;-148.52;79.26
3254;BME280;1639;42.804;23.342;2023-07-16T03:30:39;71917.63;;;-148.52;78.75
3254;BME280;1639;42.804;23.342;2023-07-16T03:33:04;71899.03;;;-148.52;78.14
3254;BME280;1639;42.804;23.342;2023-07-16T03:35:30;71923.84;;;-148.52;78.38
3254;BME280;1639;42.804;23.342;2023-07-16T03:37:55;71921.78;;;-148.52;77.95
3254;BME280;1639;42.804;23.342;2023-07-16T03:40:25;71909.38;;;-148.52;77.65
3254;BME280;1639;42.804;23.342;2023-07-16T03:42:51;71896.97;;;-148.52;77.08
3254;BME280;1639;42.804;23.342;2023-07-16T03:45:16;71925.91;;;-148.52;77.03
3254;BME280;1639;42.804;23.342;2023-07-16T03:47:42;71923.84;;;-148.52;76.91
3254;BME280;1639;42.804;23.342;2023-07-16T03:50:08;71921.78;;;-148.52;77.38
3254;BME280;1639;42.804;23.342;2023-07-16T03:52:33;71884.56;;;-148.52;77.01
3254;BME280;1639;42.804;23.342;2023-07-16T03:54:59;71874.22;;;-148.52;75.54
3254;BME280;1639;42.804;23.342;2023-07-16T03:57:24;71884.56;;;-148.52;74.93
3254;BME280;1639;42.804;23.342;2023-07-16T03:59:49;71884.56;;;-148.52;75.50
3254;BME280;1639;42.804;23.342;2023-07-16T04:02:15;71847.34;;;-148.52;75.23
3254;BME280;1639;42.804;23.342;2023-07-16T04:04:40;71886.63;;;-148.52;75.57
3254;BME280;1639;42.804;23.342;2023-07-16T04:07:06;71868.00;;;-148.52;75.18
3254;BME280;1639;42.804;23.342;2023-07-16T04:09:31;71841.13;;;-148.52;74.75
3254;BME280;1639;42.804;23.342;2023-07-16T04:11:56;71822.53;;;-148.52;74.32
3254;BME280;1639;42.804;23.342;2023-07-16T04:14:22;71863.88;;;-148.52;74.64
3254;BME280;1639;42.804;23.342;2023-07-16T04:16:47;71830.81;;;-148.52;73.99
3254;BME280;1639;42.804;23.342;2023-07-16T04:19:13;71822.53;;;-148.52;73.84
3254;BME280;1639;42.804;23.342;2023-07-16T04:21:38;71826.66;;;-148.52;73.53
3254;BME280;1639;42.804;23.342;2023-07-16T04:24:05;71828.72;;;-148.52;72.89
3254;BME280;1639;42.804;23.342;2023-07-16T04:26:31;71837.00;;;-148.52;73.82
3254;BME280;1639;42.804;23.342;2023-07-16T04:28:56;71806.00;;;-148.52;72.38
3254;BME280;1639;42.804;23.342;2023-07-16T04:31:22;71810.13;;;-148.52;72.66
3254;BME280;1639;42.804;23.342;2023-07-16T04:33:48;71810.13;;;-148.52;73.37
3254;BME280;1639;42.804;23.342;2023-07-16T04:36:13;71793.59;;;-148.52;72.81
3254;BME280;1639;42.804;23.342;2023-07-16T04:38:38;71797.72;;;-148.52;71.27
3254;BME280;1639;42.804;23.342;2023-07-16T04:41:04;71785.31;;;-148.52;71.27
3254;BME280;1639;42.804;23.342;2023-07-16T04:43:29;71781.19;;;-148.52;70.34
3254;BME280;1639;42.804;23.342;2023-07-16T04:45:55;71785.31;;;-148.52;70.09
3254;BME280;1639;42.804;23.342;2023-07-16T04:48:20;71766.69;;;-148.52;68.17
3254;BME280;1639;42.804;23.342;2023-07-16T04:50:46;71743.97;;;-148.52;68.19
3254;BME280;1639;42.804;23.342;2023-07-16T04:53:11;71729.50;;;-148.52;67.79
3254;BME280;1639;42.804;23.342;2023-07-16T04:55:37;71715.00;;;-148.52;66.88
3254;BME280;1639;42.804;23.342;2023-07-16T04:58:03;71719.16;;;-148.52;65.54
3254;BME280;1639;42.804;23.342;2023-07-16T05:00:29;71723.28;;;-148.52;68.46
3254;BME280;1639;42.804;23.342;2023-07-16T05:02:54;71708.81;;;-148.52;65.96
3254;BME280;1639;42.804;23.342;2023-07-16T05:05:19;71696.41;;;-148.52;67.10
3254;BME280;1639;42.804;23.342;2023-07-16T05:07:45;71694.34;;;-148.52;66.39
3254;BME280;1639;42.804;23.342;2023-07-16T05:10:10;71688.13;;;-148.52;64.47
3254;BME280;1639;42.804;23.342;2023-07-16T05:12:36;71677.78;;;-148.52;65.76
3254;BME280;1639;42.804;23.342;2023-07-16T05:15:01;71684.00;;;-148.52;66.35
3254;BME280;1639;42.804;23.342;2023-07-16T05:17:27;71677.78;;;-148.52;65.12
3254;BME280;1639;42.804;23.342;2023-07-16T05:19:52;71677.78;;;-148.52;62.53
3254;BME280;1639;42.804;23.342;2023-07-16T05:22:18;71679.88;;;-148.52;63.64
3254;BME280;1639;42.804;23.342;2023-07-16T05:24:43;71686.06;;;-148.52;63.74
3254;BME280;1639;42.804;23.342;2023-07-16T05:27:09;71679.88;;;-148.52;62.79
3254;BME280;1639;42.804;23.342;2023-07-16T05:29:35;71663.31;;;-148.52;62.34
3254;BME280;1639;42.804;23.342;2023-07-16T05:32:00;71653.00;;;-148.52;62.52
3254;BME280;1639;42.804;23.342;2023-07-16T05:34:25;71642.66;;;-148.52;61.53
3254;BME280;1639;42.804;23.342;2023-07-16T05:36:53;71648.84;;;-148.52;61.37
3254;BME280;1639;42.804;23.342;2023-07-16T05:39:19;71644.72;;;-148.52;60.91
3254;BME280;1639;42.804;23.342;2023-07-16T05:41:45;71642.66;;;-148.52;61.00
3254;BME280;1639;42.804;23.342;2023-07-16T05:44:10;71634.38;;;-148.52;60.14
3254;BME280;1639;42.804;23.342;2023-07-16T05:46:35;71617.84;;;-148.52;60.67
3254;BME280;1639;42.804;23.342;2023-07-16T05:49:01;71630.25;;;-148.52;59.36
3254;BME280;1639;42.804;23.342;2023-07-16T05:51:26;71615.78;;;-148.52;59.17
3254;BME280;1639;42.804;23.342;2023-07-16T05:53:52;71613.69;;;-148.52;58.96
3254;BME280;1639;42.804;23.342;2023-07-16T05:56:17;71603.38;;;-148.52;58.44
3254;BME280;1639;42.804;23.342;2023-07-16T05:58:43;71595.09;;;-148.52;58.14
3254;BME280;1639;42.804;23.342;2023-07-16T06:01:08;71613.69;;;-148.52;58.18
3254;BME280;1639;42.804;23.342;2023-07-16T06:03:34;71603.38;;;-148.52;58.16
3254;BME280;1639;42.804;23.342;2023-07-16T06:05:59;71605.44;;;-148.52;60.84
3254;BME280;1639;42.804;23.342;2023-07-16T06:08:24;71599.22;;;-148.52;58.26
3254;BME280;1639;42.804;23.342;2023-07-16T06:10:51;71593.03;;;-148.52;60.41
3254;BME280;1639;42.804;23.342;2023-07-16T06:13:16;71576.50;;;-148.52;57.76
3254;BME280;1639;42.804;23.342;2023-07-16T06:15:42;71564.09;;;-148.52;57.91
3254;BME280;1639;42.804;23.342;2023-07-16T06:18:07;71557.88;;;-148.52;57.18
3254;BME280;1639;42.804;23.342;2023-07-16T06:20:33;71543.41;;;-148.52;56.71
3254;BME280;1639;42.804;23.342;2023-07-16T06:22:58;71535.13;;;-148.52;57.45
3254;BME280;1639;42.804;23.342;2023-07-16T06:25:23;71514.47;;;-148.52;57.83
3254;BME280;1639;42.804;23.342;2023-07-16T06:27:49;71483.44;;;-148.52;55.81
3254;BME280;1639;42.804;23.342;2023-07-16T06:30:14;71483.44;;;-148.52;54.66
3254;BME280;1639;42.804;23.342;2023-07-16T06:32:40;71462.78;;;-148.52;55.32
3254;BME280;1639;42.804;23.342;2023-07-16T06:35:05;71442.09;;;-148.52;54.64
3254;BME280;1639;42.804;23.342;2023-07-16T06:37:30;71417.28;;;-148.52;54.66
3254;BME280;1639;42.804;23.342;2023-07-16T06:39:56;71400.75;;;-148.52;55.40
3254;BME280;1639;42.804;23.342;2023-07-16T06:42:22;71367.69;;;-148.52;53.49
3254;BME280;1639;42.804;23.342;2023-07-16T06:44:47;71353.22;;;-148.52;52.32
3254;BME280;1639;42.804;23.342;2023-07-16T06:47:12;71322.19;;;-148.52;52.21
3254;BME280;1639;42.804;23.342;2023-07-16T06:49:38;71322.19;;;-148.52;51.92
3254;BME280;1639;42.804;23.342;2023-07-16T06:52:03;71305.66;;;-148.52;52.18
3254;BME280;1639;42.804;23.342;2023-07-16T06:54:29;71291.19;;;-148.52;50.35
3254;BME280;1639;42.804;23.342;2023-07-16T06:56:54;71305.66;;;-148.52;50.90
3254;BME280;1639;42.804;23.342;2023-07-16T06:59:20;71272.59;;;-148.52;50.64
3254;BME280;1639;42.804;23.342;2023-07-16T07:01:45;71237.44;;;-148.52;50.45
3254;BME280;1639;42.804;23.342;2023-07-16T07:04:11;71237.44;;;-148.52;49.43
3254;BME280;1639;42.804;23.342;2023-07-16T07:06:36;71227.09;;;-148.52;48.81
3254;BME280;1639;42.804;23.342;2023-07-16T07:09:02;71264.31;;;-148.52;50.66
3254;BME280;1639;42.804;23.342;2023-07-16T07:11:27;71237.44;;;-148.52;48.44
3254;BME280;1639;42.804;23.342;2023-07-16T07:13:53;71229.16;;;-148.52;48.63
3254;BME280;1639;42.804;23.342;2023-07-16T07:16:18;71227.09;;;-148.52;48.70
3254;BME280;1639;42.804;23.342;2023-07-16T07:18:44;71210.56;;;-148.52;50.35
3254;BME280;1639;42.804;23.342;2023-07-16T07:21:10;71194.03;;;-148.52;47.67
3254;BME280;1639;42.804;23.342;2023-07-16T07:23:35;71191.97;;;-148.52;47.63
3254;BME280;1639;42.804;23.342;2023-07-16T07:26:01;71160.94;;;-148.52;47.48
3254;BME280;1639;42.804;23.342;2023-07-16T07:28:26;71132.00;;;-148.52;47.74
3254;BME280;1639;42.804;23.342;2023-07-16T07:30:52;71098.94;;;-148.52;47.78
3254;BME280;1639;42.804;23.342;2023-07-16T07:33:17;71070.00;;;-148.52;45.32
3254;BME280;1639;42.804;23.342;2023-07-16T07:35:43;71041.03;;;-148.52;46.91
3254;BME280;1639;42.804;23.342;2023-07-16T07:38:08;71024.50;;;-148.52;45.53
3254;BME280;1639;42.804;23.342;2023-07-16T07:40:33;71010.03;;;-148.52;45.32
3254;BME280;1639;42.804;23.342;2023-07-16T07:42:59;71007.97;;;-148.52;45.46
3254;BME280;1639;42.804;23.342;2023-07-16T07:45:25;70989.38;;;-148.52;44.24
3254;BME280;1639;42.804;23.342;2023-07-16T07:47:51;70952.16;;;-148.52;44.20
3254;BME280;1639;42.804;23.342;2023-07-16T08:43:11;70793.00;;;-148.52;43.49
3254;BME280;1639;42.804;23.342;2023-07-16T08:45:40;70764.06;;;-148.52;43.44
3254;BME280;1639;42.804;23.342;2023-07-16T08:48:07;70741.31;;;-148.52;41.78
3254;BME280;1639;42.804;23.342;2023-07-16T08:50:35;70693.78;;;-148.52;41.59
3254;BME280;1639;42.804;23.342;2023-07-16T08:53:01;70648.28;;;-148.52;39.89
3254;BME280;1639;42.804;23.342;2023-07-16T08:55:29;70604.91;;;-148.52;40.13
3254;BME280;1639;42.804;23.342;2023-07-16T08:57:54;70652.44;;;-148.52;40.87
3254;BME280;1639;42.804;23.342;2023-07-16T09:00:20;70611.09;;;-148.52;38.98
3254;BME280;1639;42.804;23.342;2023-07-16T09:02:45;70594.56;;;-148.52;40.69
3254;BME280;1639;42.804;23.342;2023-07-16T09:05:11;70563.56;;;-148.52;39.58
3254;BME280;1639;42.804;23.342;2023-07-16T09:07:37;70555.28;;;-148.52;39.15
3254;BME280;1639;42.804;23.342;2023-07-16T09:10:03;70540.81;;;-148.52;40.26
3254;BME280;1639;42.804;23.342;2023-07-16T09:12:28;70528.41;;;-148.52;38.99
3254;BME280;1639;42.804;23.342;2023-07-16T09:14:55;70509.81;;;-148.52;39.07
3254;BME280;1639;42.804;23.342;2023-07-16T09:17:24;70590.44;;;-148.52;39.85
3254;BME280;1639;42.804;23.342;2023-07-16T09:19:51;70547.03;;;-148.52;38.92
3254;BME280;1639;42.804;23.342;2023-07-16T09:22:18;70555.28;;;-148.52;39.24
3254;BME280;1639;42.804;23.342;2023-07-16T09:24:45;70679.31;;;-148.52;42.03
3254;BME280;1639;42.804;23.342;2023-07-16T09:27:11;70635.91;;;-148.52;40.21
3254;BME280;1639;42.804;23.342;2023-07-16T09:29:38;70648.28;;;-148.52;39.74
3254;BME280;1639;42.804;23.342;2023-07-16T09:32:04;70635.91;;;-148.52;40.37
3254;BME280;1639;42.804;23.342;2023-07-16T09:34:30;70611.09;;;-148.52;40.79
3254;BME280;1639;42.804;23.342;2023-07-16T09:36:57;70689.63;;;-148.52;42.11
3254;BME280;1639;42.804;23.342;2023-07-16T09:39:22;70625.56;;;-148.52;40.22
3254;BME280;1639;42.804;23.342;2023-07-16T09:41:49;70623.50;;;-148.52;41.33
3254;BME280;1639;42.804;23.342;2023-07-16T09:44:16;70553.22;;;-148.52;39.80
3254;BME280;1639;42.804;23.342;2023-07-16T09:46:42;70565.63;;;-148.52;38.33
3254;BME280;1639;42.804;23.342;2023-07-16T09:49:08;70528.41;;;-148.52;39.94
3254;BME280;1639;42.804;23.342;2023-07-16T09:51:35;70499.47;;;-148.52;39.06
3254;BME280;1639;42.804;23.342;2023-07-16T09:54:01;70544.94;;;-148.52;39.51
3254;BME280;1639;42.804;23.342;2023-07-16T09:56:35;70592.50;;;-148.52;40.84
3254;BME280;1639;42.804;23.342;2023-07-16T09:59:01;70706.19;;;-148.52;40.71
3254;BME280;1639;42.804;23.342;2023-07-16T10:01:28;70664.84;;;-148.52;42.68
3254;BME280;1639;42.804;23.342;2023-07-16T10:03:54;70596.63;;;-148.52;41.07
3254;BME280;1639;42.804;23.342;2023-07-16T10:06:19;70551.16;;;-148.52;40.24
3254;BME280;1639;42.804;23.342;2023-07-16T10:08:51;70532.56;;;-148.52;39.38
3254;BME280;1639;42.804;23.342;2023-07-16T10:11:17;70520.16;;;-148.52;38.74
3254;BME280;1639;42.804;23.342;2023-07-16T10:13:48;70602.81;;;-148.52;39.30
3254;BME280;1639;42.804;23.342;2023-07-16T10:16:21;70551.16;;;-148.52;37.97
3254;BME280;1639;42.804;23.342;2023-07-16T10:18:51;70540.81;;;-148.52;39.08
3254;BME280;1639;42.804;23.342;2023-07-16T10:21:23;70505.69;;;-148.52;39.49
3254;BME280;1639;42.804;23.342;2023-07-16T10:23:57;70495.34;;;-148.52;39.78
3254;BME280;1639;42.804;23.342;2023-07-16T10:26:27;70474.69;;;-148.52;39.52
3254;BME280;1639;42.804;23.342;2023-07-16T10:28:55;70462.28;;;-148.52;37.70
3254;BME280;1639;42.804;23.342;2023-07-16T10:31:24;70468.47;;;-148.52;37.46
3254;BME280;1639;42.804;23.342;2023-07-16T10:34:01;70410.59;;;-148.52;37.54
3254;BME280;1639;42.804;23.342;2023-07-16T10:36:29;70385.81;;;-148.52;36.96
3254;BME280;1639;42.804;23.342;2023-07-16T10:39:02;70367.19;;;-148.52;38.04
3254;BME280;1639;42.804;23.342;2023-07-16T10:41:28;70373.41;;;-148.52;37.70
3254;BME280;1639;42.804;23.342;2023-07-16T10:43:53;70365.13;;;-148.52;36.19
3254;BME280;1639;42.804;23.342;2023-07-16T10:46:20;70462.28;;;-148.52;38.87
3254;BME280;1639;42.804;23.342;2023-07-16T10:48:46;70468.47;;;-148.52;38.87
3254;BME280;1639;42.804;23.342;2023-07-16T10:51:14;70433.34;;;-148.52;37.38
3254;BME280;1639;42.804;23.342;2023-07-16T10:53:42;70404.41;;;-148.52;37.20
3254;BME280;1639;42.804;23.342;2023-07-16T10:56:08;70346.53;;;-148.52;37.17
3254;BME280;1639;42.804;23.342;2023-07-16T10:58:33;70408.53;;;-148.52;36.86
3254;BME280;1639;42.804;23.342;2023-07-16T11:01:01;70435.41;;;-148.52;38.09
3254;BME280;1639;42.804;23.342;2023-07-16T11:03:27;70361.00;;;-148.52;37.32
3254;BME280;1639;42.804;23.342;2023-07-16T11:05:53;70338.25;;;-148.52;37.20
3254;BME280;1639;42.804;23.342;2023-07-16T11:08:22;70325.84;;;-148.52;36.38
3254;BME280;1639;42.804;23.342;2023-07-16T11:10:54;70319.66;;;-148.52;36.60
3254;BME280;1639;42.804;23.342;2023-07-16T11:13:19;70334.13;;;-148.52;35.21
3254;BME280;1639;42.804;23.342;2023-07-16T11:15:45;70332.06;;;-148.52;35.06
3254;BME280;1639;42.804;23.342;2023-07-16T11:18:10;70400.25;;;-148.52;35.61
3254;BME280;1639;42.804;23.342;2023-07-16T11:20:36;70363.06;;;-148.52;35.65
3254;BME280;1639;42.804;23.342;2023-07-16T11:23:01;70379.59;;;-148.52;35.41
3254;BME280;1639;42.804;23.342;2023-07-16T11:25:27;70354.78;;;-148.52;34.54
3254;BME280;1639;42.804;23.342;2023-07-16T11:27:54;70319.66;;;-148.52;35.88
3254;BME280;1639;42.804;23.342;2023-07-16T11:30:24;70288.66;;;-148.52;34.25
3254;BME280;1639;42.804;23.342;2023-07-16T11:32:51;70296.94;;;-148.52;34.83
3254;BME280;1639;42.804;23.342;2023-07-16T11:35:18;70387.88;;;-148.52;35.31
3254;BME280;1639;42.804;23.342;2023-07-16T11:37:44;70392.00;;;-148.52;34.47
3254;BME280;1639;42.804;23.342;2023-07-16T11:40:14;70334.13;;;-148.52;33.43
3254;BME280;1639;42.804;23.342;2023-07-16T11:42:40;70336.19;;;-148.52;34.20
3254;BME280;1639;42.804;23.342;2023-07-16T11:45:19;70301.06;;;-148.52;34.58
3254;BME280;1639;42.804;23.342;2023-07-16T11:47:45;70278.31;;;-148.52;34.56
3254;BME280;1639;42.804;23.342;2023-07-16T11:50:11;70265.94;;;-148.52;33.22
3254;BME280;1639;42.804;23.342;2023-07-16T11:52:38;70342.41;;;-148.52;34.21
3254;BME280;1639;42.804;23.342;2023-07-16T11:55:03;70352.72;;;-148.52;35.20
3254;BME280;1639;42.804;23.342;2023-07-16T11:57:29;70317.59;;;-148.52;33.90
3254;BME280;1639;42.804;23.342;2023-07-16T11:59:55;70276.25;;;-148.52;35.15
3254;BME280;1639;42.804;23.342;2023-07-16T12:02:21;70383.72;;;-148.52;34.36
3254;BME280;1639;42.804;23.342;2023-07-16T12:04:47;70387.88;;;-148.52;35.03
3254;BME280;1639;42.804;23.342;2023-07-16T12:07:13;70383.72;;;-148.52;37.62
3254;BME280;1639;42.804;23.342;2023-07-16T12:09:38;70338.25;;;-148.52;35.98
3254;BME280;1639;42.804;23.342;2023-07-16T12:12:04;70274.19;;;-148.52;33.89
3254;BME280;1639;42.804;23.342;2023-07-16T12:14:30;70371.34;;;-148.52;32.89
3254;BME280;1639;42.804;23.342;2023-07-16T12:16:56;70332.06;;;-148.52;33.20
3254;BME280;1639;42.804;23.342;2023-07-16T12:19:21;70311.41;;;-148.52;32.72
3254;BME280;1639;42.804;23.342;2023-07-16T12:21:47;70280.38;;;-148.52;33.48
3254;BME280;1639;42.804;23.342;2023-07-16T12:24:12;70340.31;;;-148.52;33.52
3254;BME280;1639;42.804;23.342;2023-07-16T12:26:38;70354.78;;;-148.52;33.13
3254;BME280;1639;42.804;23.342;2023-07-16T12:29:03;70400.25;;;-148.52;33.44
3254;BME280;1639;42.804;23.342;2023-07-16T12:31:32;70379.59;;;-148.52;33.32
3254;BME280;1639;42.804;23.342;2023-07-16T12:33:58;70358.94;;;-148.52;33.42
3254;BME280;1639;42.804;23.342;2023-07-16T12:36:24;70392.00;;;-148.52;32.38
3254;BME280;1639;42.804;23.342;2023-07-16T12:38:49;70385.81;;;-148.52;35.31
3254;BME280;1639;42.804;23.342;2023-07-16T12:41:15;70392.00;;;-148.52;32.63
3254;BME280;1639;42.804;23.342;2023-07-16T12:43:41;70338.25;;;-148.52;32.99
3254;BME280;1639;42.804;23.342;2023-07-16T12:46:07;70377.53;;;-148.52;32.58
3254;BME280;1639;42.804;23.342;2023-07-16T12:48:33;70354.78;;;-148.52;32.04
3254;BME280;1639;42.804;23.342;2023-07-16T12:50:58;70317.59;;;-148.52;32.32
3254;BME280;1639;42.804;23.342;2023-07-16T12:53:24;70301.06;;;-148.52;31.31
3254;BME280;1639;42.804;23.342;2023-07-16T12:55:49;70265.94;;;-148.52;31.83
3254;BME280;1639;42.804;23.342;2023-07-16T12:58:15;70230.78;;;-148.52;31.90
3254;BME280;1639;42.804;23.342;2023-07-16T13:00:40;70228.72;;;-148.52;30.32
3254;BME280;1639;42.804;23.342;2023-07-16T13:03:06;70255.59;;;-148.52;30.77
3254;BME280;1639;42.804;23.342;2023-07-16T13:05:33;70292.78;;;-148.52;31.49
3254;BME280;1639;42.804;23.342;2023-07-16T13:07:59;70363.06;;;-148.52;31.78
3254;BME280;1639;42.804;23.342;2023-07-16T13:10:24;70321.72;;;-148.52;32.60
3254;BME280;1639;42.804;23.342;2023-07-16T13:12:49;70325.84;;;-148.52;32.72
3254;BME280;1639;42.804;23.342;2023-07-16T13:15:15;70309.31;;;-148.52;31.18
3254;BME280;1639;42.804;23.342;2023-07-16T13:17:40;70350.66;;;-148.52;33.22
3254;BME280;1639;42.804;23.342;2023-07-16T13:20:06;70305.19;;;-148.52;32.97
3254;BME280;1639;42.804;23.342;2023-07-16T13:22:32;70265.94;;;-148.52;31.15
3254;BME280;1639;42.804;23.342;2023-07-16T13:24:57;70251.47;;;-148.52;30.60
3254;BME280;1639;42.804;23.342;2023-07-16T13:27:23;70245.25;;;-148.52;31.23
3254;BME280;1639;42.804;23.342;2023-07-16T13:29:49;70222.53;;;-148.52;29.98
3254;BME280;1639;42.804;23.342;2023-07-16T13:32:15;70251.47;;;-148.52;32.50
3254;BME280;1639;42.804;23.342;2023-07-16T13:34:40;70272.13;;;-148.52;32.64
3254;BME280;1639;42.804;23.342;2023-07-16T13:37:09;70245.25;;;-148.52;31.08
3254;BME280;1639;42.804;23.342;2023-07-16T13:39:34;70249.38;;;-148.52;31.48